sensor_id;sensor_type;location;lat;lon;timestamp;P1;durP1;ratioP1;P2;durP2;ratioP2
59998;SDS011;45859;51.378;6.736;2023-02-15T00:00:09;20.10;;;9.43;;
59998;SDS011;45859;51.378;6.736;2023-02-15T00:02:38;15.87;;;7.53;;
59998;SDS011;45859;51.378;6.736;2023-02-15T00:05:03;23.00;;;10.60;;
59998;SDS011;45859;51.378;6.736;2023-02-15T00:07:29;21.50;;;8.83;;
59998;SDS011;45859;51.378;6.736;2023-02-15T00:09:55;11.93;;;6.07;;
59998;SDS011;45859;51.378;6.736;2023-02-15T00:12:20;25.53;;;9.80;;
59998;SDS011;45859;51.378;6.736;2023-02-15T00:14:46;15.73;;;8.07;;
59998;SDS011;45859;51.378;6.736;2023-02-15T00:17:12;20.63;;;8.63;;
59998;SDS011;45859;51.378;6.736;2023-02-15T00:19:38;11.53;;;6.10;;
59998;SDS011;45859;51.378;6.736;2023-02-15T00:22:05;9.27;;;5.60;;
59998;SDS011;45859;51.378;6.736;2023-02-15T00:24:30;23.17;;;10.10;;
59998;SDS011;45859;51.378;6.736;2023-02-15T00:26:56;15.40;;;6.70;;
59998;SDS011;45859;51.378;6.736;2023-02-15T00:29:21;13.57;;;7.97;;
59998;SDS011;45859;51.378;6.736;2023-02-15T00:31:47;18.63;;;6.63;;
59998;SDS011;45859;51.378;6.736;2023-02-15T00:34:14;22.30;;;10.97;;
59998;SDS011;45859;51.378;6.736;2023-02-15T00:36:42;12.53;;;6.83;;
59998;SDS011;45859;51.378;6.736;2023-02-15T00:39:09;18.23;;;7.83;;
59998;SDS011;45859;51.378;6.736;2023-02-15T00:41:35;20.40;;;8.63;;
59998;SDS011;45859;51.378;6.736;2023-02-15T00:44:00;14.73;;;7.53;;
59998;SDS011;45859;51.378;6.736;2023-02-15T00:46:26;16.07;;;8.63;;
59998;SDS011;45859;51.378;6.736;2023-02-15T00:48:52;24.77;;;10.77;;
59998;SDS011;45859;51.378;6.736;2023-02-15T00:51:18;26.33;;;9.80;;
59998;SDS011;45859;51.378;6.736;2023-02-15T00:53:45;18.10;;;7.83;;
59998;SDS011;45859;51.378;6.736;2023-02-15T00:56:10;19.73;;;8.07;;
59998;SDS011;45859;51.378;6.736;2023-02-15T00:58:36;14.23;;;6.37;;
59998;SDS011;45859;51.378;6.736;2023-02-15T01:01:03;15.30;;;7.37;;
59998;SDS011;45859;51.378;6.736;2023-02-15T01:03:31;22.70;;;10.33;;
59998;SDS011;45859;51.378;6.736;2023-02-15T01:05:56;11.73;;;5.43;;
59998;SDS011;45859;51.378;6.736;2023-02-15T01:08:22;21.13;;;9.23;;
59998;SDS011;45859;51.378;6.736;2023-02-15T01:10:47;21.77;;;9.90;;
59998;SDS011;45859;51.378;6.736;2023-02-15T01:13:14;20.03;;;9.67;;
59998;SDS011;45859;51.378;6.736;2023-02-15T01:15:41;16.77;;;6.50;;
59998;SDS011;45859;51.378;6.736;2023-02-15T01:18:07;18.63;;;7.53;;
59998;SDS011;45859;51.378;6.736;2023-02-15T01:20:34;15.63;;;8.53;;
59998;SDS011;45859;51.378;6.736;2023-02-15T01:23:04;15.57;;;8.45;;
59998;SDS011;45859;51.378;6.736;2023-02-15T01:25:32;17.97;;;8.47;;
59998;SDS011;45859;51.378;6.736;2023-02-15T01:27:58;26.83;;;11.50;;
59998;SDS011;45859;51.378;6.736;2023-02-15T01:30:24;9.23;;;5.27;;
59998;SDS011;45859;51.378;6.736;2023-02-15T01:32:51;24.40;;;12.53;;
59998;SDS011;45859;51.378;6.736;2023-02-15T01:35:16;25.87;;;11.57;;
59998;SDS011;45859;51.378;6.736;2023-02-15T01:37:42;26.17;;;10.67;;
59998;SDS011;45859;51.378;6.736;2023-02-15T01:40:08;18.10;;;8.57;;
59998;SDS011;45859;51.378;6.736;2023-02-15T01:47:52;17.97;;;7.57;;
59998;SDS011;45859;51.378;6.736;2023-02-15T01:50:26;22.20;;;9.33;;
59998;SDS011;45859;51.378;6.736;2023-02-15T01:52:58;16.07;;;8.40;;
59998;SDS011;45859;51.378;6.736;2023-02-15T01:55:29;17.50;;;9.07;;
59998;SDS011;45859;51.378;6.736;2023-02-15T01:57:59;14.43;;;6.33;;
59998;SDS011;45859;51.378;6.736;2023-02-15T02:00:26;27.13;;;9.03;;
59998;SDS011;45859;51.378;6.736;2023-02-15T02:02:53;14.53;;;7.63;;
59998;SDS011;45859;51.378;6.736;2023-02-15T02:05:20;22.37;;;8.33;;
59998;SDS011;45859;51.378;6.736;2023-02-15T02:07:46;19.30;;;8.80;;
59998;SDS011;45859;51.378;6.736;2023-02-15T02:10:15;15.00;;;7.43;;
59998;SDS011;45859;51.378;6.736;2023-02-15T02:12:43;19.97;;;9.30;;
59998;SDS011;45859;51.378;6.736;2023-02-15T02:15:10;12.77;;;6.27;;
59998;SDS011;45859;51.378;6.736;2023-02-15T02:17:54;16.30;;;6.40;;
59998;SDS011;45859;51.378;6.736;2023-02-15T02:34:20;20.77;;;9.53;;
59998;SDS011;45859;51.378;6.736;2023-02-15T02:42:54;15.53;;;7.63;;
59998;SDS011;45859;51.378;6.736;2023-02-15T02:45:34;15.23;;;7.97;;
59998;SDS011;45859;51.378;6.736;2023-02-15T02:48:09;12.43;;;6.77;;
59998;SDS011;45859;51.378;6.736;2023-02-15T02:50:39;21.97;;;9.80;;
59998;SDS011;45859;51.378;6.736;2023-02-15T02:53:06;16.07;;;6.97;;
59998;SDS011;45859;51.378;6.736;2023-02-15T02:58:45;23.13;;;8.50;;
59998;SDS011;45859;51.378;6.736;2023-02-15T03:01:20;21.30;;;8.13;;
59998;SDS011;45859;51.378;6.736;2023-02-15T03:03:48;27.57;;;11.13;;
59998;SDS011;45859;51.378;6.736;2023-02-15T03:06:20;17.97;;;8.27;;
59998;SDS011;45859;51.378;6.736;2023-02-15T03:08:55;10.00;;;5.93;;
59998;SDS011;45859;51.378;6.736;2023-02-15T03:11:30;24.87;;;10.07;;
59998;SDS011;45859;51.378;6.736;2023-02-15T03:13:56;20.77;;;9.50;;
59998;SDS011;45859;51.378;6.736;2023-02-15T03:16:22;24.37;;;9.97;;
59998;SDS011;45859;51.378;6.736;2023-02-15T03:18:52;26.07;;;11.63;;
59998;SDS011;45859;51.378;6.736;2023-02-15T03:21:34;20.17;;;8.67;;
59998;SDS011;45859;51.378;6.736;2023-02-15T03:24:16;29.20;;;11.47;;
59998;SDS011;45859;51.378;6.736;2023-02-15T03:26:47;25.17;;;11.50;;
59998;SDS011;45859;51.378;6.736;2023-02-15T03:29:17;27.80;;;11.45;;
59998;SDS011;45859;51.378;6.736;2023-02-15T03:31:45;20.37;;;11.03;;
59998;SDS011;45859;51.378;6.736;2023-02-15T03:34:13;21.60;;;8.10;;
59998;SDS011;45859;51.378;6.736;2023-02-15T03:36:52;25.13;;;11.23;;
59998;SDS011;45859;51.378;6.736;2023-02-15T03:42:28;24.23;;;10.27;;
59998;SDS011;45859;51.378;6.736;2023-02-15T03:47:32;22.03;;;8.23;;
59998;SDS011;45859;51.378;6.736;2023-02-15T03:50:12;13.77;;;7.23;;
59998;SDS011;45859;51.378;6.736;2023-02-15T03:52:58;18.03;;;8.50;;
59998;SDS011;45859;51.378;6.736;2023-02-15T03:55:26;22.50;;;10.10;;
59998;SDS011;45859;51.378;6.736;2023-02-15T03:57:53;14.10;;;7.13;;
59998;SDS011;45859;51.378;6.736;2023-02-15T04:00:38;29.87;;;10.83;;
59998;SDS011;45859;51.378;6.736;2023-02-15T04:06:09;17.87;;;8.73;;
59998;SDS011;45859;51.378;6.736;2023-02-15T04:08:35;15.77;;;8.10;;
59998;SDS011;45859;51.378;6.736;2023-02-15T04:11:19;23.97;;;10.77;;
59998;SDS011;45859;51.378;6.736;2023-02-15T04:13:45;17.97;;;8.43;;
59998;SDS011;45859;51.378;6.736;2023-02-15T04:16:10;34.63;;;9.43;;
59998;SDS011;45859;51.378;6.736;2023-02-15T04:18:37;19.13;;;9.83;;
59998;SDS011;45859;51.378;6.736;2023-02-15T04:21:26;23.20;;;10.10;;
59998;SDS011;45859;51.378;6.736;2023-02-15T04:24:12;17.73;;;8.73;;
59998;SDS011;45859;51.378;6.736;2023-02-15T04:26:56;17.27;;;5.63;;
59998;SDS011;45859;51.378;6.736;2023-02-15T04:29:23;17.70;;;7.97;;
59998;SDS011;45859;51.378;6.736;2023-02-15T04:31:50;25.47;;;10.93;;
59998;SDS011;45859;51.378;6.736;2023-02-15T04:34:17;13.10;;;6.07;;
59998;SDS011;45859;51.378;6.736;2023-02-15T04:36:42;18.80;;;8.60;;
59998;SDS011;45859;51.378;6.736;2023-02-15T04:39:08;26.43;;;7.63;;
59998;SDS011;45859;51.378;6.736;2023-02-15T04:41:37;13.53;;;7.37;;
59998;SDS011;45859;51.378;6.736;2023-02-15T04:44:02;13.47;;;6.60;;
59998;SDS011;45859;51.378;6.736;2023-02-15T04:46:28;22.40;;;8.63;;
59998;SDS011;45859;51.378;6.736;2023-02-15T04:48:54;16.20;;;6.67;;
59998;SDS011;45859;51.378;6.736;2023-02-15T04:51:20;17.40;;;8.17;;
59998;SDS011;45859;51.378;6.736;2023-02-15T04:53:45;21.67;;;8.73;;
59998;SDS011;45859;51.378;6.736;2023-02-15T04:56:11;16.57;;;9.27;;
59998;SDS011;45859;51.378;6.736;2023-02-15T04:58:36;19.33;;;9.43;;
59998;SDS011;45859;51.378;6.736;2023-02-15T05:01:05;18.50;;;6.40;;
59998;SDS011;45859;51.378;6.736;2023-02-15T05:03:31;17.80;;;8.70;;
59998;SDS011;45859;51.378;6.736;2023-02-15T05:05:57;32.67;;;13.27;;
59998;SDS011;45859;51.378;6.736;2023-02-15T05:08:23;13.27;;;5.77;;
59998;SDS011;45859;51.378;6.736;2023-02-15T05:10:48;28.40;;;9.83;;
59998;SDS011;45859;51.378;6.736;2023-02-15T05:13:14;15.87;;;8.43;;
59998;SDS011;45859;51.378;6.736;2023-02-15T05:15:40;21.40;;;9.33;;
59998;SDS011;45859;51.378;6.736;2023-02-15T05:18:05;23.70;;;11.03;;
59998;SDS011;45859;51.378;6.736;2023-02-15T05:20:32;25.33;;;9.77;;
59998;SDS011;45859;51.378;6.736;2023-02-15T05:22:58;15.97;;;7.77;;
59998;SDS011;45859;51.378;6.736;2023-02-15T05:25:24;16.53;;;6.93;;
59998;SDS011;45859;51.378;6.736;2023-02-15T05:28:11;18.83;;;9.70;;
59998;SDS011;45859;51.378;6.736;2023-02-15T05:30:49;28.57;;;12.07;;
59998;SDS011;45859;51.378;6.736;2023-02-15T05:33:17;16.10;;;6.93;;
59998;SDS011;45859;51.378;6.736;2023-02-15T05:35:43;17.90;;;7.93;;
59998;SDS011;45859;51.378;6.736;2023-02-15T05:38:09;19.13;;;8.83;;
59998;SDS011;45859;51.378;6.736;2023-02-15T05:40:34;16.77;;;7.60;;
59998;SDS011;45859;51.378;6.736;2023-02-15T05:43:00;26.60;;;11.13;;
59998;SDS011;45859;51.378;6.736;2023-02-15T05:45:26;20.63;;;8.87;;
59998;SDS011;45859;51.378;6.736;2023-02-15T05:47:51;21.43;;;9.23;;
59998;SDS011;45859;51.378;6.736;2023-02-15T05:50:17;11.93;;;7.20;;
59998;SDS011;45859;51.378;6.736;2023-02-15T05:52:43;16.60;;;7.37;;
59998;SDS011;45859;51.378;6.736;2023-02-15T05:55:08;20.80;;;9.13;;
59998;SDS011;45859;51.378;6.736;2023-02-15T05:57:34;22.63;;;10.07;;
59998;SDS011;45859;51.378;6.736;2023-02-15T06:00:01;23.13;;;11.37;;
59998;SDS011;45859;51.378;6.736;2023-02-15T06:02:29;32.20;;;13.00;;
59998;SDS011;45859;51.378;6.736;2023-02-15T06:04:57;28.50;;;10.13;;
59998;SDS011;45859;51.378;6.736;2023-02-15T06:07:23;23.17;;;12.63;;
59998;SDS011;45859;51.378;6.736;2023-02-15T06:09:49;12.53;;;6.80;;
59998;SDS011;45859;51.378;6.736;2023-02-15T06:12:15;14.20;;;7.83;;
59998;SDS011;45859;51.378;6.736;2023-02-15T06:14:40;15.50;;;7.80;;
59998;SDS011;45859;51.378;6.736;2023-02-15T06:17:06;14.97;;;6.57;;
59998;SDS011;45859;51.378;6.736;2023-02-15T06:19:32;15.60;;;8.43;;
59998;SDS011;45859;51.378;6.736;2023-02-15T06:21:57;26.83;;;12.03;;
59998;SDS011;45859;51.378;6.736;2023-02-15T06:24:23;20.63;;;8.13;;
59998;SDS011;45859;51.378;6.736;2023-02-15T06:26:49;17.73;;;7.53;;
59998;SDS011;45859;51.378;6.736;2023-02-15T06:29:14;18.83;;;8.47;;
59998;SDS011;45859;51.378;6.736;2023-02-15T06:31:40;26.50;;;12.00;;
59998;SDS011;45859;51.378;6.736;2023-02-15T06:34:06;10.53;;;5.90;;
59998;SDS011;45859;51.378;6.736;2023-02-15T06:36:31;17.97;;;8.20;;
59998;SDS011;45859;51.378;6.736;2023-02-15T06:38:57;24.07;;;10.87;;
59998;SDS011;45859;51.378;6.736;2023-02-15T06:41:22;17.43;;;7.33;;
59998;SDS011;45859;51.378;6.736;2023-02-15T06:43:49;23.37;;;9.83;;
59998;SDS011;45859;51.378;6.736;2023-02-15T06:46:15;21.53;;;10.13;;
59998;SDS011;45859;51.378;6.736;2023-02-15T06:48:40;22.80;;;10.17;;
59998;SDS011;45859;51.378;6.736;2023-02-15T06:51:08;31.80;;;12.00;;
59998;SDS011;45859;51.378;6.736;2023-02-15T06:53:33;27.17;;;12.27;;
59998;SDS011;45859;51.378;6.736;2023-02-15T06:56:04;18.60;;;8.57;;
59998;SDS011;45859;51.378;6.736;2023-02-15T06:58:40;24.43;;;10.67;;
59998;SDS011;45859;51.378;6.736;2023-02-15T07:01:07;17.93;;;9.13;;
59998;SDS011;45859;51.378;6.736;2023-02-15T07:03:33;18.60;;;8.60;;
59998;SDS011;45859;51.378;6.736;2023-02-15T07:06:00;25.23;;;11.47;;
59998;SDS011;45859;51.378;6.736;2023-02-15T07:08:27;19.00;;;9.60;;
59998;SDS011;45859;51.378;6.736;2023-02-15T07:10:54;19.53;;;8.37;;
59998;SDS011;45859;51.378;6.736;2023-02-15T07:13:40;30.90;;;11.60;;
59998;SDS011;45859;51.378;6.736;2023-02-15T07:16:07;11.63;;;5.97;;
59998;SDS011;45859;51.378;6.736;2023-02-15T07:18:33;25.90;;;10.87;;
59998;SDS011;45859;51.378;6.736;2023-02-15T07:20:59;15.10;;;7.53;;
59998;SDS011;45859;51.378;6.736;2023-02-15T07:23:24;13.50;;;5.93;;
59998;SDS011;45859;51.378;6.736;2023-02-15T07:25:56;11.33;;;4.87;;
59998;SDS011;45859;51.378;6.736;2023-02-15T07:28:22;19.70;;;8.40;;
59998;SDS011;45859;51.378;6.736;2023-02-15T07:30:48;22.07;;;10.07;;
59998;SDS011;45859;51.378;6.736;2023-02-15T07:33:13;20.80;;;9.33;;
59998;SDS011;45859;51.378;6.736;2023-02-15T07:35:51;8.80;;;4.87;;
59998;SDS011;45859;51.378;6.736;2023-02-15T07:38:19;20.20;;;8.93;;
59998;SDS011;45859;51.378;6.736;2023-02-15T07:40:45;14.83;;;5.93;;
59998;SDS011;45859;51.378;6.736;2023-02-15T07:43:12;15.80;;;8.20;;
59998;SDS011;45859;51.378;6.736;2023-02-15T07:45:38;22.97;;;10.40;;
59998;SDS011;45859;51.378;6.736;2023-02-15T07:48:04;16.10;;;7.43;;
59998;SDS011;45859;51.378;6.736;2023-02-15T07:50:31;20.87;;;9.83;;
59998;SDS011;45859;51.378;6.736;2023-02-15T07:52:57;23.90;;;10.00;;
59998;SDS011;45859;51.378;6.736;2023-02-15T07:55:23;12.30;;;5.40;;
59998;SDS011;45859;51.378;6.736;2023-02-15T07:57:49;13.30;;;7.50;;
59998;SDS011;45859;51.378;6.736;2023-02-15T08:00:16;21.30;;;8.83;;
59998;SDS011;45859;51.378;6.736;2023-02-15T08:02:48;12.97;;;5.40;;
59998;SDS011;45859;51.378;6.736;2023-02-15T08:05:34;15.10;;;6.55;;
59998;SDS011;45859;51.378;6.736;2023-02-15T08:08:00;13.77;;;7.20;;
59998;SDS011;45859;51.378;6.736;2023-02-15T08:10:26;15.47;;;6.10;;
59998;SDS011;45859;51.378;6.736;2023-02-15T08:13:11;19.17;;;9.10;;
59998;SDS011;45859;51.378;6.736;2023-02-15T08:15:37;16.33;;;7.30;;
59998;SDS011;45859;51.378;6.736;2023-02-15T08:18:02;12.47;;;6.37;;
59998;SDS011;45859;51.378;6.736;2023-02-15T08:20:28;16.40;;;6.67;;
59998;SDS011;45859;51.378;6.736;2023-02-15T08:22:54;15.30;;;6.73;;
59998;SDS011;45859;51.378;6.736;2023-02-15T08:25:19;15.03;;;7.67;;
59998;SDS011;45859;51.378;6.736;2023-02-15T08:27:45;16.50;;;8.17;;
59998;SDS011;45859;51.378;6.736;2023-02-15T08:30:11;15.93;;;8.37;;
59998;SDS011;45859;51.378;6.736;2023-02-15T08:32:39;13.77;;;6.57;;
59998;SDS011;45859;51.378;6.736;2023-02-15T08:35:04;13.93;;;7.53;;
59998;SDS011;45859;51.378;6.736;2023-02-15T08:37:30;14.60;;;7.97;;
59998;SDS011;45859;51.378;6.736;2023-02-15T08:39:56;18.57;;;9.73;;
59998;SDS011;45859;51.378;6.736;2023-02-15T08:42:21;17.60;;;8.17;;
59998;SDS011;45859;51.378;6.736;2023-02-15T08:44:47;9.87;;;6.03;;
59998;SDS011;45859;51.378;6.736;2023-02-15T08:47:15;13.63;;;7.20;;
59998;SDS011;45859;51.378;6.736;2023-02-15T08:49:40;17.50;;;8.87;;
59998;SDS011;45859;51.378;6.736;2023-02-15T08:52:06;16.13;;;7.00;;
59998;SDS011;45859;51.378;6.736;2023-02-15T08:54:32;14.30;;;6.90;;
59998;SDS011;45859;51.378;6.736;2023-02-15T08:56:57;26.20;;;19.67;;
59998;SDS011;45859;51.378;6.736;2023-02-15T08:59:23;25.63;;;18.57;;
59998;SDS011;45859;51.378;6.736;2023-02-15T09:01:51;24.83;;;19.03;;
59998;SDS011;45859;51.378;6.736;2023-02-15T09:04:17;23.93;;;19.20;;
59998;SDS011;45859;51.378;6.736;2023-02-15T09:06:45;25.40;;;18.83;;
59998;SDS011;45859;51.378;6.736;2023-02-15T09:09:12;27.00;;;18.33;;
59998;SDS011;45859;51.378;6.736;2023-02-15T09:11:38;26.07;;;19.07;;
59998;SDS011;45859;51.378;6.736;2023-02-15T09:14:07;25.47;;;19.40;;
59998;SDS011;45859;51.378;6.736;2023-02-15T09:16:41;23.93;;;19.10;;
59998;SDS011;45859;51.378;6.736;2023-02-15T09:21:37;16.30;;;7.77;;
59998;SDS011;45859;51.378;6.736;2023-02-15T09:24:04;13.73;;;6.17;;
59998;SDS011;45859;51.378;6.736;2023-02-15T09:26:33;21.60;;;7.63;;
59998;SDS011;45859;51.378;6.736;2023-02-15T09:29:01;16.47;;;7.57;;
59998;SDS011;45859;51.378;6.736;2023-02-15T09:31:32;14.10;;;5.93;;
59998;SDS011;45859;51.378;6.736;2023-02-15T09:34:01;19.27;;;8.40;;
59998;SDS011;45859;51.378;6.736;2023-02-15T09:38:56;16.87;;;7.23;;
59998;SDS011;45859;51.378;6.736;2023-02-15T09:58:41;17.80;;;7.97;;
59998;SDS011;45859;51.378;6.736;2023-02-15T10:12:53;16.00;;;7.10;;
59998;SDS011;45859;51.378;6.736;2023-02-15T10:15:44;21.13;;;8.53;;
59998;SDS011;45859;51.378;6.736;2023-02-15T10:20:56;19.20;;;8.57;;
59998;SDS011;45859;51.378;6.736;2023-02-15T10:26:20;19.27;;;8.60;;
59998;SDS011;45859;51.378;6.736;2023-02-15T10:31:17;11.43;;;5.67;;
59998;SDS011;45859;51.378;6.736;2023-02-15T10:34:04;18.73;;;7.93;;
59998;SDS011;45859;51.378;6.736;2023-02-15T10:36:54;8.37;;;5.13;;
59998;SDS011;45859;51.378;6.736;2023-02-15T10:47:43;13.40;;;6.53;;
59998;SDS011;45859;51.378;6.736;2023-02-15T10:50:49;10.50;;;5.53;;
59998;SDS011;45859;51.378;6.736;2023-02-15T11:07:41;15.37;;;7.53;;
59998;SDS011;45859;51.378;6.736;2023-02-15T11:12:49;22.27;;;17.27;;
59998;SDS011;45859;51.378;6.736;2023-02-15T11:15:26;18.93;;;8.77;;
59998;SDS011;45859;51.378;6.736;2023-02-15T11:18:01;22.87;;;16.23;;
59998;SDS011;45859;51.378;6.736;2023-02-15T11:20:35;24.73;;;17.00;;
59998;SDS011;45859;51.378;6.736;2023-02-15T11:23:06;19.63;;;15.60;;
59998;SDS011;45859;51.378;6.736;2023-02-15T11:25:40;21.23;;;15.70;;
59998;SDS011;45859;51.378;6.736;2023-02-15T11:28:11;14.47;;;6.83;;
59998;SDS011;45859;51.378;6.736;2023-02-15T11:30:50;12.52;;;7.05;;
59998;SDS011;45859;51.378;6.736;2023-02-15T11:33:24;12.68;;;6.72;;
59998;SDS011;45859;51.378;6.736;2023-02-15T11:38:34;20.60;;;16.37;;
59998;SDS011;45859;51.378;6.736;2023-02-15T11:41:09;15.33;;;6.83;;
59998;SDS011;45859;51.378;6.736;2023-02-15T11:46:26;20.77;;;15.80;;
59998;SDS011;45859;51.378;6.736;2023-02-15T11:48:51;22.67;;;16.43;;
59998;SDS011;45859;51.378;6.736;2023-02-15T11:51:18;22.77;;;15.83;;
59998;SDS011;45859;51.378;6.736;2023-02-15T11:53:47;20.60;;;14.93;;
59998;SDS011;45859;51.378;6.736;2023-02-15T11:56:18;25.03;;;15.63;;
59998;SDS011;45859;51.378;6.736;2023-02-15T11:59:03;19.87;;;14.73;;
59998;SDS011;45859;51.378;6.736;2023-02-15T12:01:35;20.83;;;15.60;;
59998;SDS011;45859;51.378;6.736;2023-02-15T12:07:30;22.80;;;16.50;;
59998;SDS011;45859;51.378;6.736;2023-02-15T12:14:59;21.37;;;15.33;;
59998;SDS011;45859;51.378;6.736;2023-02-15T12:17:38;20.37;;;16.00;;
59998;SDS011;45859;51.378;6.736;2023-02-15T12:22:45;21.53;;;15.53;;
59998;SDS011;45859;51.378;6.736;2023-02-15T12:28:40;19.47;;;14.67;;
59998;SDS011;45859;51.378;6.736;2023-02-15T12:31:10;19.17;;;14.27;;
59998;SDS011;45859;51.378;6.736;2023-02-15T12:33:46;21.33;;;14.35;;
59998;SDS011;45859;51.378;6.736;2023-02-15T12:36:15;19.57;;;14.23;;
59998;SDS011;45859;51.378;6.736;2023-02-15T12:41:44;19.75;;;14.73;;
59998;SDS011;45859;51.378;6.736;2023-02-15T12:44:19;19.90;;;14.27;;
59998;SDS011;45859;51.378;6.736;2023-02-15T12:49:35;18.58;;;13.57;;
59998;SDS011;45859;51.378;6.736;2023-02-15T12:52:03;19.20;;;14.07;;
59998;SDS011;45859;51.378;6.736;2023-02-15T12:54:50;19.03;;;14.10;;
59998;SDS011;45859;51.378;6.736;2023-02-15T12:59:55;19.13;;;14.00;;
59998;SDS011;45859;51.378;6.736;2023-02-15T13:02:42;17.87;;;13.10;;
59998;SDS011;45859;51.378;6.736;2023-02-15T13:05:17;20.03;;;14.47;;
59998;SDS011;45859;51.378;6.736;2023-02-15T13:13:29;19.63;;;14.83;;
59998;SDS011;45859;51.378;6.736;2023-02-15T13:15:58;19.47;;;13.87;;
59998;SDS011;45859;51.378;6.736;2023-02-15T13:18:43;18.83;;;13.33;;
59998;SDS011;45859;51.378;6.736;2023-02-15T13:21:12;20.83;;;14.80;;
59998;SDS011;45859;51.378;6.736;2023-02-15T13:23:47;21.30;;;14.07;;
59998;SDS011;45859;51.378;6.736;2023-02-15T13:26:19;19.43;;;14.17;;
59998;SDS011;45859;51.378;6.736;2023-02-15T13:28:48;18.77;;;13.50;;
59998;SDS011;45859;51.378;6.736;2023-02-15T13:31:18;19.27;;;14.30;;
59998;SDS011;45859;51.378;6.736;2023-02-15T13:33:50;19.67;;;13.97;;
59998;SDS011;45859;51.378;6.736;2023-02-15T13:38:51;21.07;;;13.77;;
59998;SDS011;45859;51.378;6.736;2023-02-15T13:44:58;18.47;;;13.13;;
59998;SDS011;45859;51.378;6.736;2023-02-15T13:48:24;20.63;;;13.47;;
59998;SDS011;45859;51.378;6.736;2023-02-15T14:01:40;20.30;;;13.20;;
59998;SDS011;45859;51.378;6.736;2023-02-15T14:07:24;19.02;;;13.20;;
59998;SDS011;45859;51.378;6.736;2023-02-15T14:15:53;19.03;;;13.00;;
59998;SDS011;45859;51.378;6.736;2023-02-15T14:18:49;21.00;;;13.40;;
59998;SDS011;45859;51.378;6.736;2023-02-15T14:32:09;22.58;;;12.60;;
59998;SDS011;45859;51.378;6.736;2023-02-15T14:34:54;19.87;;;13.70;;
59998;SDS011;45859;51.378;6.736;2023-02-15T14:37:50;20.33;;;14.17;;
59998;SDS011;45859;51.378;6.736;2023-02-15T14:40:33;21.70;;;13.90;;
59998;SDS011;45859;51.378;6.736;2023-02-15T14:43:40;20.60;;;14.20;;
59998;SDS011;45859;51.378;6.736;2023-02-15T14:46:38;21.63;;;14.13;;
59998;SDS011;45859;51.378;6.736;2023-02-15T14:49:22;20.90;;;13.13;;
59998;SDS011;45859;51.378;6.736;2023-02-15T14:59:37;17.47;;;13.33;;
59998;SDS011;45859;51.378;6.736;2023-02-15T15:02:12;20.03;;;13.63;;
59998;SDS011;45859;51.378;6.736;2023-02-15T15:04:58;19.15;;;13.52;;
59998;SDS011;45859;51.378;6.736;2023-02-15T15:07:43;19.90;;;13.73;;
59998;SDS011;45859;51.378;6.736;2023-02-15T15:12:48;19.07;;;13.13;;
59998;SDS011;45859;51.378;6.736;2023-02-15T15:25:48;21.07;;;13.00;;
59998;SDS011;45859;51.378;6.736;2023-02-15T15:31:05;19.73;;;12.97;;
59998;SDS011;45859;51.378;6.736;2023-02-15T15:34:00;20.07;;;13.53;;
59998;SDS011;45859;51.378;6.736;2023-02-15T15:50:18;20.07;;;14.27;;
59998;SDS011;45859;51.378;6.736;2023-02-15T15:52:46;17.57;;;12.97;;
59998;SDS011;45859;51.378;6.736;2023-02-15T15:55:15;17.95;;;8.07;;
59998;SDS011;45859;51.378;6.736;2023-02-15T15:57:44;15.73;;;8.07;;
59998;SDS011;45859;51.378;6.736;2023-02-15T16:00:23;19.65;;;13.68;;
59998;SDS011;45859;51.378;6.736;2023-02-15T16:02:59;19.40;;;13.77;;
59998;SDS011;45859;51.378;6.736;2023-02-15T16:05:25;18.77;;;13.87;;
59998;SDS011;45859;51.378;6.736;2023-02-15T16:07:51;23.13;;;14.60;;
59998;SDS011;45859;51.378;6.736;2023-02-15T16:10:27;21.10;;;14.20;;
59998;SDS011;45859;51.378;6.736;2023-02-15T16:12:54;22.53;;;15.57;;
59998;SDS011;45859;51.378;6.736;2023-02-15T16:15:21;22.23;;;15.23;;
59998;SDS011;45859;51.378;6.736;2023-02-15T16:17:54;21.37;;;15.10;;
59998;SDS011;45859;51.378;6.736;2023-02-15T16:20:31;22.90;;;15.57;;
59998;SDS011;45859;51.378;6.736;2023-02-15T16:28:22;23.00;;;15.83;;
59998;SDS011;45859;51.378;6.736;2023-02-15T16:30:54;20.43;;;15.97;;
59998;SDS011;45859;51.378;6.736;2023-02-15T16:33:44;23.13;;;15.63;;
59998;SDS011;45859;51.378;6.736;2023-02-15T16:36:21;23.80;;;16.73;;
59998;SDS011;45859;51.378;6.736;2023-02-15T16:39:06;20.97;;;16.03;;
59998;SDS011;45859;51.378;6.736;2023-02-15T16:41:34;24.33;;;16.67;;
59998;SDS011;45859;51.378;6.736;2023-02-15T16:44:03;21.97;;;16.20;;
59998;SDS011;45859;51.378;6.736;2023-02-15T16:46:40;21.30;;;16.17;;
59998;SDS011;45859;51.378;6.736;2023-02-15T16:49:16;22.27;;;16.40;;
59998;SDS011;45859;51.378;6.736;2023-02-15T16:51:57;23.03;;;16.17;;
59998;SDS011;45859;51.378;6.736;2023-02-15T16:54:25;32.27;;;17.63;;
59998;SDS011;45859;51.378;6.736;2023-02-15T16:56:53;23.27;;;17.13;;
59998;SDS011;45859;51.378;6.736;2023-02-15T16:59:38;22.17;;;16.17;;
59998;SDS011;45859;51.378;6.736;2023-02-15T17:02:12;18.93;;;9.20;;
59998;SDS011;45859;51.378;6.736;2023-02-15T17:04:43;25.13;;;17.17;;
59998;SDS011;45859;51.378;6.736;2023-02-15T17:09:52;25.90;;;17.63;;
59998;SDS011;45859;51.378;6.736;2023-02-15T17:15:36;17.38;;;8.85;;
59998;SDS011;45859;51.378;6.736;2023-02-15T17:18:11;22.17;;;10.83;;
59998;SDS011;45859;51.378;6.736;2023-02-15T17:20:43;18.13;;;8.00;;
59998;SDS011;45859;51.378;6.736;2023-02-15T17:23:21;26.23;;;18.50;;
59998;SDS011;45859;51.378;6.736;2023-02-15T17:25:47;23.13;;;17.70;;
59998;SDS011;45859;51.378;6.736;2023-02-15T17:28:17;21.37;;;16.77;;
59998;SDS011;45859;51.378;6.736;2023-02-15T17:30:51;26.07;;;17.07;;
59998;SDS011;45859;51.378;6.736;2023-02-15T17:40:56;20.83;;;15.43;;
59998;SDS011;45859;51.378;6.736;2023-02-15T17:43:23;22.77;;;16.53;;
59998;SDS011;45859;51.378;6.736;2023-02-15T17:45:49;23.53;;;15.37;;
59998;SDS011;45859;51.378;6.736;2023-02-15T17:48:19;21.33;;;15.10;;
59998;SDS011;45859;51.378;6.736;2023-02-15T17:51:02;21.67;;;15.70;;
59998;SDS011;45859;51.378;6.736;2023-02-15T17:53:29;10.13;;;6.53;;
59998;SDS011;45859;51.378;6.736;2023-02-15T17:55:56;10.90;;;5.77;;
59998;SDS011;45859;51.378;6.736;2023-02-15T17:58:22;12.20;;;5.80;;
59998;SDS011;45859;51.378;6.736;2023-02-15T18:00:54;16.60;;;8.00;;
59998;SDS011;45859;51.378;6.736;2023-02-15T18:03:42;23.20;;;15.80;;
59998;SDS011;45859;51.378;6.736;2023-02-15T18:06:31;20.17;;;15.73;;
59998;SDS011;45859;51.378;6.736;2023-02-15T18:09:18;23.17;;;15.80;;
59998;SDS011;45859;51.378;6.736;2023-02-15T18:14:46;20.13;;;15.27;;
59998;SDS011;45859;51.378;6.736;2023-02-15T18:17:13;22.53;;;15.70;;
59998;SDS011;45859;51.378;6.736;2023-02-15T18:19:40;19.53;;;15.50;;
59998;SDS011;45859;51.378;6.736;2023-02-15T18:22:12;14.73;;;6.03;;
59998;SDS011;45859;51.378;6.736;2023-02-15T18:24:42;14.10;;;6.60;;
59998;SDS011;45859;51.378;6.736;2023-02-15T18:27:09;19.23;;;7.20;;
59998;SDS011;45859;51.378;6.736;2023-02-15T18:29:37;21.33;;;15.67;;
59998;SDS011;45859;51.378;6.736;2023-02-15T18:32:02;16.40;;;7.93;;
59998;SDS011;45859;51.378;6.736;2023-02-15T18:34:34;18.63;;;8.87;;
59998;SDS011;45859;51.378;6.736;2023-02-15T18:37:03;22.70;;;8.10;;
59998;SDS011;45859;51.378;6.736;2023-02-15T18:42:04;16.60;;;7.87;;
59998;SDS011;45859;51.378;6.736;2023-02-15T18:44:31;14.70;;;6.97;;